sensor_id;sensor_type;location;lat;lon;timestamp;temperature;humidity
39021;DHT22;25188;51.958;5.842;2023-02-01T00:00:32;5.00;99.90
39021;DHT22;25188;51.958;5.842;2023-02-01T00:03:00;5.00;99.90
39021;DHT22;25188;51.958;5.842;2023-02-01T00:05:25;5.00;99.90
39021;DHT22;25188;51.958;5.842;2023-02-01T00:07:51;5.00;99.90
39021;DHT22;25188;51.958;5.842;2023-02-01T00:10:17;5.00;99.90
39021;DHT22;25188;51.958;5.842;2023-02-01T00:12:43;5.00;99.90
39021;DHT22;25188;51.958;5.842;2023-02-01T00:15:09;5.00;99.90
39021;DHT22;25188;51.958;5.842;2023-02-01T00:17:34;5.10;99.90
39021;DHT22;25188;51.958;5.842;2023-02-01T00:20:00;5.10;99.90
39021;DHT22;25188;51.958;5.842;2023-02-01T00:22:26;5.10;99.90
39021;DHT22;25188;51.958;5.842;2023-02-01T00:24:52;5.10;99.90
39021;DHT22;25188;51.958;5.842;2023-02-01T00:27:17;5.10;99.90
39021;DHT22;25188;51.958;5.842;2023-02-01T00:29:45;5.10;99.90
39021;DHT22;25188;51.958;5.842;2023-02-01T00:32:11;5.10;99.90
39021;DHT22;25188;51.958;5.842;2023-02-01T00:34:37;5.10;99.90
39021;DHT22;25188;51.958;5.842;2023-02-01T00:37:03;5.10;99.90
39021;DHT22;25188;51.958;5.842;2023-02-01T00:39:28;5.10;99.90
39021;DHT22;25188;51.958;5.842;2023-02-01T00:41:54;5.10;99.90
39021;DHT22;25188;51.958;5.842;2023-02-01T00:44:20;5.10;99.90
39021;DHT22;25188;51.958;5.842;2023-02-01T00:46:45;5.10;99.90
39021;DHT22;25188;51.958;5.842;2023-02-01T00:49:11;5.10;99.90
39021;DHT22;25188;51.958;5.842;2023-02-01T00:51:36;5.20;99.90
39021;DHT22;25188;51.958;5.842;2023-02-01T00:54:02;5.10;99.90
39021;DHT22;25188;51.958;5.842;2023-02-01T00:56:29;5.10;99.90
39021;DHT22;25188;51.958;5.842;2023-02-01T00:58:55;5.10;99.90
39021;DHT22;25188;51.958;5.842;2023-02-01T01:01:23;5.20;99.90
39021;DHT22;25188;51.958;5.842;2023-02-01T01:03:55;5.20;99.90
39021;DHT22;25188;51.958;5.842;2023-02-01T01:06:29;5.20;99.90
39021;DHT22;25188;51.958;5.842;2023-02-01T01:08:55;5.20;99.90
39021;DHT22;25188;51.958;5.842;2023-02-01T01:11:29;5.20;99.90
39021;DHT22;25188;51.958;5.842;2023-02-01T01:13:56;5.20;99.90
39021;DHT22;25188;51.958;5.842;2023-02-01T01:16:23;5.20;99.90
39021;DHT22;25188;51.958;5.842;2023-02-01T01:18:50;5.20;99.90
39021;DHT22;25188;51.958;5.842;2023-02-01T01:21:16;5.20;99.90
39021;DHT22;25188;51.958;5.842;2023-02-01T01:23:42;5.30;99.90
39021;DHT22;25188;51.958;5.842;2023-02-01T01:26:12;5.20;99.90
39021;DHT22;25188;51.958;5.842;2023-02-01T01:28:38;5.20;99.90
39021;DHT22;25188;51.958;5.842;2023-02-01T01:31:08;5.20;99.90
39021;DHT22;25188;51.958;5.842;2023-02-01T01:33:33;5.20;99.90
39021;DHT22;25188;51.958;5.842;2023-02-01T01:35:59;5.20;99.90
39021;DHT22;25188;51.958;5.842;2023-02-01T01:38:25;5.20;99.90
39021;DHT22;25188;51.958;5.842;2023-02-01T01:40:50;5.20;99.90
39021;DHT22;25188;51.958;5.842;2023-02-01T01:43:18;5.30;99.90
39021;DHT22;25188;51.958;5.842;2023-02-01T01:45:45;5.20;99.90
39021;DHT22;25188;51.958;5.842;2023-02-01T01:48:26;5.30;99.90
39021;DHT22;25188;51.958;5.842;2023-02-01T01:51:14;5.30;99.90
39021;DHT22;25188;51.958;5.842;2023-02-01T01:54:02;5.30;99.90
39021;DHT22;25188;51.958;5.842;2023-02-01T01:56:29;5.30;99.90
39021;DHT22;25188;51.958;5.842;2023-02-01T01:58:57;5.20;99.90
39021;DHT22;25188;51.958;5.842;2023-02-01T02:01:23;5.30;99.90
39021;DHT22;25188;51.958;5.842;2023-02-01T02:03:50;5.10;99.90
39021;DHT22;25188;51.958;5.842;2023-02-01T02:08:47;5.10;99.90
39021;DHT22;25188;51.958;5.842;2023-02-01T02:11:16;5.10;99.90
39021;DHT22;25188;51.958;5.842;2023-02-01T02:13:44;5.00;99.90
39021;DHT22;25188;51.958;5.842;2023-02-01T02:16:40;5.10;99.90
39021;DHT22;25188;51.958;5.842;2023-02-01T02:27:23;4.90;99.90
39021;DHT22;25188;51.958;5.842;2023-02-01T02:38:30;5.00;99.90
39021;DHT22;25188;51.958;5.842;2023-02-01T02:41:10;4.90;99.90
39021;DHT22;25188;51.958;5.842;2023-02-01T02:43:59;4.90;99.90
39021;DHT22;25188;51.958;5.842;2023-02-01T02:46:48;4.90;99.90
39021;DHT22;25188;51.958;5.842;2023-02-01T02:49:39;4.90;99.90
39021;DHT22;25188;51.958;5.842;2023-02-01T02:52:16;5.00;99.90
39021;DHT22;25188;51.958;5.842;2023-02-01T02:55:04;5.00;99.90
39021;DHT22;25188;51.958;5.842;2023-02-01T02:57:39;5.10;99.90
39021;DHT22;25188;51.958;5.842;2023-02-01T03:00:28;5.10;99.90
39021;DHT22;25188;51.958;5.842;2023-02-01T03:03:14;5.10;99.90
39021;DHT22;25188;51.958;5.842;2023-02-01T03:05:58;5.20;99.90
39021;DHT22;25188;51.958;5.842;2023-02-01T03:08:25;5.20;99.90
39021;DHT22;25188;51.958;5.842;2023-02-01T03:11:00;5.20;99.90
39021;DHT22;25188;51.958;5.842;2023-02-01T03:13:51;5.20;99.90
39021;DHT22;25188;51.958;5.842;2023-02-01T03:16:28;5.20;99.90
39021;DHT22;25188;51.958;5.842;2023-02-01T03:19:06;5.20;99.90
39021;DHT22;25188;51.958;5.842;2023-02-01T03:21:50;5.30;99.90
39021;DHT22;25188;51.958;5.842;2023-02-01T03:24:18;5.20;99.90
39021;DHT22;25188;51.958;5.842;2023-02-01T03:26:53;5.20;99.90
39021;DHT22;25188;51.958;5.842;2023-02-01T03:29:28;5.30;99.90
39021;DHT22;25188;51.958;5.842;2023-02-01T03:31:56;5.30;99.90
39021;DHT22;25188;51.958;5.842;2023-02-01T03:34:21;5.30;99.90
39021;DHT22;25188;51.958;5.842;2023-02-01T03:39:21;5.30;99.90
39021;DHT22;25188;51.958;5.842;2023-02-01T03:41:50;5.30;99.90
39021;DHT22;25188;51.958;5.842;2023-02-01T03:44:19;5.30;99.90
39021;DHT22;25188;51.958;5.842;2023-02-01T03:49:23;5.30;99.90
39021;DHT22;25188;51.958;5.842;2023-02-01T03:51:51;5.30;99.90
39021;DHT22;25188;51.958;5.842;2023-02-01T03:54:18;5.30;99.90
39021;DHT22;25188;51.958;5.842;2023-02-01T03:56:46;5.30;99.90
39021;DHT22;25188;51.958;5.842;2023-02-01T03:59:14;5.40;99.90
39021;DHT22;25188;51.958;5.842;2023-02-01T04:01:40;5.30;99.90
39021;DHT22;25188;51.958;5.842;2023-02-01T04:04:06;5.30;99.90
39021;DHT22;25188;51.958;5.842;2023-02-01T04:06:32;5.30;99.90
39021;DHT22;25188;51.958;5.842;2023-02-01T04:08:57;5.30;99.90
39021;DHT22;25188;51.958;5.842;2023-02-01T04:11:23;5.30;99.90
39021;DHT22;25188;51.958;5.842;2023-02-01T04:13:49;5.30;99.90
39021;DHT22;25188;51.958;5.842;2023-02-01T04:16:14;5.20;99.90
39021;DHT22;25188;51.958;5.842;2023-02-01T04:18:40;5.30;99.90
39021;DHT22;25188;51.958;5.842;2023-02-01T04:21:06;5.30;99.90
39021;DHT22;25188;51.958;5.842;2023-02-01T04:23:31;5.20;99.90
39021;DHT22;25188;51.958;5.842;2023-02-01T04:26:01;5.20;99.90
39021;DHT22;25188;51.958;5.842;2023-02-01T04:28:28;5.30;99.90
39021;DHT22;25188;51.958;5.842;2023-02-01T04:30:53;5.30;99.90
39021;DHT22;25188;51.958;5.842;2023-02-01T04:33:19;5.40;99.90
39021;DHT22;25188;51.958;5.842;2023-02-01T04:35:45;5.40;99.90
39021;DHT22;25188;51.958;5.842;2023-02-01T04:38:11;5.50;99.90
39021;DHT22;25188;51.958;5.842;2023-02-01T04:40:37;5.50;99.90
39021;DHT22;25188;51.958;5.842;2023-02-01T04:43:03;5.50;99.90
39021;DHT22;25188;51.958;5.842;2023-02-01T04:45:29;5.70;99.90
39021;DHT22;25188;51.958;5.842;2023-02-01T04:47:55;5.70;99.90
39021;DHT22;25188;51.958;5.842;2023-02-01T04:50:21;5.80;99.90
39021;DHT22;25188;51.958;5.842;2023-02-01T04:52:46;5.90;99.90
39021;DHT22;25188;51.958;5.842;2023-02-01T04:55:12;5.90;99.90
39021;DHT22;25188;51.958;5.842;2023-02-01T04:57:39;6.00;99.90
39021;DHT22;25188;51.958;5.842;2023-02-01T05:00:07;6.00;99.90
39021;DHT22;25188;51.958;5.842;2023-02-01T05:02:33;6.00;99.90
39021;DHT22;25188;51.958;5.842;2023-02-01T05:04:59;6.10;99.90
39021;DHT22;25188;51.958;5.842;2023-02-01T05:07:25;6.10;99.90
39021;DHT22;25188;51.958;5.842;2023-02-01T05:09:50;6.20;99.90
39021;DHT22;25188;51.958;5.842;2023-02-01T05:12:16;6.10;99.90
39021;DHT22;25188;51.958;5.842;2023-02-01T05:15:00;6.40;99.90
39021;DHT22;25188;51.958;5.842;2023-02-01T05:17:26;6.30;99.90
39021;DHT22;25188;51.958;5.842;2023-02-01T05:19:51;6.30;99.90
39021;DHT22;25188;51.958;5.842;2023-02-01T05:22:17;6.30;99.90
39021;DHT22;25188;51.958;5.842;2023-02-01T05:24:43;6.40;99.90
39021;DHT22;25188;51.958;5.842;2023-02-01T05:27:09;6.40;99.90
39021;DHT22;25188;51.958;5.842;2023-02-01T05:29:34;6.40;99.90
39021;DHT22;25188;51.958;5.842;2023-02-01T05:32:00;6.40;99.90
39021;DHT22;25188;51.958;5.842;2023-02-01T05:34:26;6.40;99.90
39021;DHT22;25188;51.958;5.842;2023-02-01T05:36:51;6.50;99.90
39021;DHT22;25188;51.958;5.842;2023-02-01T05:39:17;6.50;99.90
39021;DHT22;25188;51.958;5.842;2023-02-01T05:41:42;6.50;99.90
39021;DHT22;25188;51.958;5.842;2023-02-01T05:44:09;6.60;99.90
39021;DHT22;25188;51.958;5.842;2023-02-01T05:46:35;6.50;99.90
39021;DHT22;25188;51.958;5.842;2023-02-01T05:49:02;6.60;99.90
39021;DHT22;25188;51.958;5.842;2023-02-01T05:51:27;6.50;99.90
39021;DHT22;25188;51.958;5.842;2023-02-01T05:53:53;6.60;99.90
39021;DHT22;25188;51.958;5.842;2023-02-01T05:56:18;6.60;99.90
39021;DHT22;25188;51.958;5.842;2023-02-01T05:58:44;6.60;99.80
39021;DHT22;25188;51.958;5.842;2023-02-01T06:01:09;6.60;99.80
39021;DHT22;25188;51.958;5.842;2023-02-01T06:03:35;6.60;99.60
39021;DHT22;25188;51.958;5.842;2023-02-01T06:06:01;6.70;99.50
39021;DHT22;25188;51.958;5.842;2023-02-01T06:08:27;6.70;99.40
39021;DHT22;25188;51.958;5.842;2023-02-01T06:11:05;6.70;99.20
39021;DHT22;25188;51.958;5.842;2023-02-01T06:13:31;6.70;99.10
39021;DHT22;25188;51.958;5.842;2023-02-01T06:15:57;6.70;99.00
39021;DHT22;25188;51.958;5.842;2023-02-01T06:18:24;6.70;98.90
39021;DHT22;25188;51.958;5.842;2023-02-01T06:20:57;6.70;98.80
39021;DHT22;25188;51.958;5.842;2023-02-01T06:23:25;6.70;98.60
39021;DHT22;25188;51.958;5.842;2023-02-01T06:25:52;6.70;98.60
39021;DHT22;25188;51.958;5.842;2023-02-01T06:28:18;6.80;98.50
39021;DHT22;25188;51.958;5.842;2023-02-01T06:30:45;6.80;98.60
39021;DHT22;25188;51.958;5.842;2023-02-01T06:33:13;6.70;98.40
39021;DHT22;25188;51.958;5.842;2023-02-01T06:35:43;6.80;98.50
39021;DHT22;25188;51.958;5.842;2023-02-01T06:38:10;6.70;98.40
39021;DHT22;25188;51.958;5.842;2023-02-01T06:40:37;6.70;98.30
39021;DHT22;25188;51.958;5.842;2023-02-01T06:43:03;6.70;98.20
39021;DHT22;25188;51.958;5.842;2023-02-01T06:45:28;6.70;98.20
39021;DHT22;25188;51.958;5.842;2023-02-01T06:47:54;6.80;98.20
39021;DHT22;25188;51.958;5.842;2023-02-01T06:50:19;6.80;98.30
39021;DHT22;25188;51.958;5.842;2023-02-01T06:52:46;6.80;98.20
39021;DHT22;25188;51.958;5.842;2023-02-01T06:55:11;6.80;98.20
39021;DHT22;25188;51.958;5.842;2023-02-01T06:57:38;6.80;98.30
39021;DHT22;25188;51.958;5.842;2023-02-01T07:00:04;6.80;98.20
39021;DHT22;25188;51.958;5.842;2023-02-01T07:02:30;6.80;98.20
39021;DHT22;25188;51.958;5.842;2023-02-01T07:04:56;6.80;98.20
39021;DHT22;25188;51.958;5.842;2023-02-01T07:07:22;6.80;98.20
39021;DHT22;25188;51.958;5.842;2023-02-01T07:09:49;6.80;98.20
39021;DHT22;25188;51.958;5.842;2023-02-01T07:12:15;6.80;98.20
39021;DHT22;25188;51.958;5.842;2023-02-01T07:14:41;6.80;98.20
39021;DHT22;25188;51.958;5.842;2023-02-01T07:17:06;6.80;98.30
39021;DHT22;25188;51.958;5.842;2023-02-01T07:19:32;6.80;98.20
39021;DHT22;25188;51.958;5.842;2023-02-01T07:21:58;6.70;98.20
39021;DHT22;25188;51.958;5.842;2023-02-01T07:24:24;6.80;98.20
39021;DHT22;25188;51.958;5.842;2023-02-01T07:26:49;6.70;98.30
39021;DHT22;25188;51.958;5.842;2023-02-01T07:29:17;6.70;98.30
39021;DHT22;25188;51.958;5.842;2023-02-01T07:31:43;6.70;98.40
39021;DHT22;25188;51.958;5.842;2023-02-01T07:34:08;6.60;98.50
39021;DHT22;25188;51.958;5.842;2023-02-01T07:36:34;6.60;98.50
39021;DHT22;25188;51.958;5.842;2023-02-01T07:39:02;6.60;98.70
39021;DHT22;25188;51.958;5.842;2023-02-01T07:41:28;6.60;98.80
39021;DHT22;25188;51.958;5.842;2023-02-01T07:43:54;6.50;98.90
39021;DHT22;25188;51.958;5.842;2023-02-01T07:46:20;6.50;99.10
39021;DHT22;25188;51.958;5.842;2023-02-01T07:48:46;6.50;99.20
39021;DHT22;25188;51.958;5.842;2023-02-01T07:51:14;6.50;99.30
39021;DHT22;25188;51.958;5.842;2023-02-01T07:53:40;6.50;99.40
39021;DHT22;25188;51.958;5.842;2023-02-01T07:56:18;6.50;99.40
39021;DHT22;25188;51.958;5.842;2023-02-01T07:58:48;6.50;99.50
39021;DHT22;25188;51.958;5.842;2023-02-01T08:01:15;6.50;99.50
39021;DHT22;25188;51.958;5.842;2023-02-01T08:03:54;6.40;99.50
39021;DHT22;25188;51.958;5.842;2023-02-01T08:06:21;6.50;99.60
39021;DHT22;25188;51.958;5.842;2023-02-01T08:08:48;6.40;99.70
39021;DHT22;25188;51.958;5.842;2023-02-01T08:11:15;6.40;99.70
39021;DHT22;25188;51.958;5.842;2023-02-01T08:13:41;6.50;99.80
39021;DHT22;25188;51.958;5.842;2023-02-01T08:16:09;6.50;99.80
39021;DHT22;25188;51.958;5.842;2023-02-01T08:18:36;6.50;99.80
39021;DHT22;25188;51.958;5.842;2023-02-01T08:21:05;6.50;99.70
39021;DHT22;25188;51.958;5.842;2023-02-01T08:23:33;6.50;99.70
39021;DHT22;25188;51.958;5.842;2023-02-01T08:28:31;6.50;99.60
39021;DHT22;25188;51.958;5.842;2023-02-01T08:30:57;6.60;99.60
39021;DHT22;25188;51.958;5.842;2023-02-01T08:33:23;6.50;99.50
39021;DHT22;25188;51.958;5.842;2023-02-01T08:35:48;6.60;99.40
39021;DHT22;25188;51.958;5.842;2023-02-01T08:38:14;6.60;99.30
39021;DHT22;25188;51.958;5.842;2023-02-01T08:40:39;6.60;99.30
39021;DHT22;25188;51.958;5.842;2023-02-01T08:43:07;6.60;99.30
39021;DHT22;25188;51.958;5.842;2023-02-01T08:45:33;6.60;99.40
39021;DHT22;25188;51.958;5.842;2023-02-01T08:47:59;6.60;99.40
39021;DHT22;25188;51.958;5.842;2023-02-01T08:50:25;6.60;99.40
39021;DHT22;25188;51.958;5.842;2023-02-01T08:52:52;6.60;99.50
39021;DHT22;25188;51.958;5.842;2023-02-01T08:55:18;6.60;99.60
39021;DHT22;25188;51.958;5.842;2023-02-01T08:57:43;6.70;99.60
39021;DHT22;25188;51.958;5.842;2023-02-01T09:00:13;6.80;99.70
39021;DHT22;25188;51.958;5.842;2023-02-01T09:02:39;6.90;99.40
39021;DHT22;25188;51.958;5.842;2023-02-01T09:05:05;6.90;99.30
39021;DHT22;25188;51.958;5.842;2023-02-01T09:07:32;6.90;99.20
39021;DHT22;25188;51.958;5.842;2023-02-01T09:09:58;7.00;99.10
39021;DHT22;25188;51.958;5.842;2023-02-01T09:12:27;7.00;99.10
39021;DHT22;25188;51.958;5.842;2023-02-01T09:14:54;7.20;99.20
39021;DHT22;25188;51.958;5.842;2023-02-01T09:17:20;7.30;98.90
39021;DHT22;25188;51.958;5.842;2023-02-01T09:19:46;7.30;98.20
39021;DHT22;25188;51.958;5.842;2023-02-01T09:22:11;7.30;98.00
39021;DHT22;25188;51.958;5.842;2023-02-01T09:24:37;7.30;97.80
39021;DHT22;25188;51.958;5.842;2023-02-01T09:27:03;7.30;97.80
39021;DHT22;25188;51.958;5.842;2023-02-01T09:29:29;7.40;97.80
39021;DHT22;25188;51.958;5.842;2023-02-01T09:31:54;7.40;97.80
39021;DHT22;25188;51.958;5.842;2023-02-01T09:34:20;7.50;97.70
39021;DHT22;25188;51.958;5.842;2023-02-01T09:36:45;7.50;97.70
39021;DHT22;25188;51.958;5.842;2023-02-01T09:39:11;7.60;97.70
39021;DHT22;25188;51.958;5.842;2023-02-01T09:44:31;7.80;97.20
39021;DHT22;25188;51.958;5.842;2023-02-01T09:47:01;7.90;96.80
39021;DHT22;25188;51.958;5.842;2023-02-01T09:49:32;8.10;96.30
39021;DHT22;25188;51.958;5.842;2023-02-01T09:52:02;8.20;96.00
39021;DHT22;25188;51.958;5.842;2023-02-01T09:54:41;8.20;95.80
39021;DHT22;25188;51.958;5.842;2023-02-01T09:57:19;8.20;95.60
39021;DHT22;25188;51.958;5.842;2023-02-01T10:00:03;8.20;95.10
39021;DHT22;25188;51.958;5.842;2023-02-01T10:02:30;8.30;94.70
39021;DHT22;25188;51.958;5.842;2023-02-01T10:05:00;8.20;94.70
39021;DHT22;25188;51.958;5.842;2023-02-01T10:10:15;8.20;94.50
39021;DHT22;25188;51.958;5.842;2023-02-01T10:15:47;8.20;94.40
39021;DHT22;25188;51.958;5.842;2023-02-01T10:18:49;8.10;94.50
39021;DHT22;25188;51.958;5.842;2023-02-01T10:21:41;8.10;94.60
39021;DHT22;25188;51.958;5.842;2023-02-01T10:24:36;8.10;94.60
39021;DHT22;25188;51.958;5.842;2023-02-01T10:27:20;8.00;94.70
39021;DHT22;25188;51.958;5.842;2023-02-01T10:29:50;8.10;94.90
39021;DHT22;25188;51.958;5.842;2023-02-01T10:32:21;8.00;95.30
39021;DHT22;25188;51.958;5.842;2023-02-01T10:34:57;8.00;96.10
39021;DHT22;25188;51.958;5.842;2023-02-01T10:37:27;7.90;96.60
39021;DHT22;25188;51.958;5.842;2023-02-01T10:39:55;7.90;97.10
39021;DHT22;25188;51.958;5.842;2023-02-01T10:42:27;7.80;97.50
39021;DHT22;25188;51.958;5.842;2023-02-01T10:44:56;7.80;97.50
39021;DHT22;25188;51.958;5.842;2023-02-01T10:47:24;7.80;97.80
39021;DHT22;25188;51.958;5.842;2023-02-01T10:49:52;7.70;98.30
39021;DHT22;25188;51.958;5.842;2023-02-01T10:54:57;7.60;99.90
39021;DHT22;25188;51.958;5.842;2023-02-01T10:57:58;7.50;99.90
39021;DHT22;25188;51.958;5.842;2023-02-01T11:00:24;7.40;99.90
39021;DHT22;25188;51.958;5.842;2023-02-01T11:02:51;7.30;99.90
39021;DHT22;25188;51.958;5.842;2023-02-01T11:05:17;7.30;99.90
39021;DHT22;25188;51.958;5.842;2023-02-01T11:07:50;7.20;99.90
39021;DHT22;25188;51.958;5.842;2023-02-01T11:10:38;7.20;99.90
39021;DHT22;25188;51.958;5.842;2023-02-01T11:13:11;7.20;99.90
39021;DHT22;25188;51.958;5.842;2023-02-01T11:15:36;7.20;99.90
39021;DHT22;25188;51.958;5.842;2023-02-01T11:18:18;7.20;99.90
39021;DHT22;25188;51.958;5.842;2023-02-01T11:20:47;7.20;99.90
39021;DHT22;25188;51.958;5.842;2023-02-01T11:23:16;7.20;99.90
39021;DHT22;25188;51.958;5.842;2023-02-01T11:26:44;7.20;99.90
39021;DHT22;25188;51.958;5.842;2023-02-01T11:28:54;7.30;99.90
39021;DHT22;25188;51.958;5.842;2023-02-01T11:31:22;7.30;99.90
39021;DHT22;25188;51.958;5.842;2023-02-01T11:33:53;7.30;99.90
39021;DHT22;25188;51.958;5.842;2023-02-01T11:36:27;7.30;99.90
39021;DHT22;25188;51.958;5.842;2023-02-01T11:42:04;7.30;99.90
39021;DHT22;25188;51.958;5.842;2023-02-01T11:44:38;7.40;99.90
39021;DHT22;25188;51.958;5.842;2023-02-01T11:47:27;7.40;99.90
39021;DHT22;25188;51.958;5.842;2023-02-01T11:49:59;7.30;99.90
39021;DHT22;25188;51.958;5.842;2023-02-01T11:52:54;7.40;99.90
39021;DHT22;25188;51.958;5.842;2023-02-01T12:00:54;7.40;99.90
39021;DHT22;25188;51.958;5.842;2023-02-01T12:11:43;7.50;99.90
39021;DHT22;25188;51.958;5.842;2023-02-01T12:40:51;8.20;98.70
39021;DHT22;25188;51.958;5.842;2023-02-01T12:42:48;8.30;98.10
39021;DHT22;25188;51.958;5.842;2023-02-01T12:45:34;8.30;98.10
39021;DHT22;25188;51.958;5.842;2023-02-01T12:50:53;8.40;97.70
39021;DHT22;25188;51.958;5.842;2023-02-01T12:56:14;8.40;97.30
39021;DHT22;25188;51.958;5.842;2023-02-01T12:58:54;8.40;96.90
39021;DHT22;25188;51.958;5.842;2023-02-01T13:04:29;8.40;96.70
39021;DHT22;25188;51.958;5.842;2023-02-01T13:07:13;8.40;96.50
39021;DHT22;25188;51.958;5.842;2023-02-01T13:10:45;8.40;96.30
39021;DHT22;25188;51.958;5.842;2023-02-01T13:16:01;8.40;96.00
39021;DHT22;25188;51.958;5.842;2023-02-01T13:18:35;8.30;95.90
39021;DHT22;25188;51.958;5.842;2023-02-01T13:23:36;8.30;96.00
39021;DHT22;25188;51.958;5.842;2023-02-01T13:26:03;8.40;95.70
39021;DHT22;25188;51.958;5.842;2023-02-01T13:28:39;8.40;95.50
39021;DHT22;25188;51.958;5.842;2023-02-01T13:36:59;8.40;95.00
39021;DHT22;25188;51.958;5.842;2023-02-01T13:42:03;8.40;94.90
39021;DHT22;25188;51.958;5.842;2023-02-01T13:44:40;8.40;94.80
39021;DHT22;25188;51.958;5.842;2023-02-01T13:47:28;8.40;94.90
39021;DHT22;25188;51.958;5.842;2023-02-01T13:49:59;8.40;95.00
39021;DHT22;25188;51.958;5.842;2023-02-01T13:55:26;8.40;94.90
39021;DHT22;25188;51.958;5.842;2023-02-01T13:58:05;8.40;94.90
39021;DHT22;25188;51.958;5.842;2023-02-01T14:00:37;8.40;94.90
39021;DHT22;25188;51.958;5.842;2023-02-01T14:03:08;8.40;94.90
39021;DHT22;25188;51.958;5.842;2023-02-01T14:10:59;8.40;94.90
39021;DHT22;25188;51.958;5.842;2023-02-01T14:13:30;8.40;95.20
39021;DHT22;25188;51.958;5.842;2023-02-01T14:21:19;8.40;95.20
39021;DHT22;25188;51.958;5.842;2023-02-01T14:26:42;8.50;95.10
39021;DHT22;25188;51.958;5.842;2023-02-01T14:31:44;8.50;94.70
39021;DHT22;25188;51.958;5.842;2023-02-01T14:37:02;8.60;94.60
39021;DHT22;25188;51.958;5.842;2023-02-01T14:39:32;8.50;94.60
39021;DHT22;25188;51.958;5.842;2023-02-01T14:42:03;8.60;94.40
39021;DHT22;25188;51.958;5.842;2023-02-01T14:44:33;8.60;94.40
39021;DHT22;25188;51.958;5.842;2023-02-01T14:47:10;8.60;94.40
39021;DHT22;25188;51.958;5.842;2023-02-01T14:49:46;8.50;94.50
39021;DHT22;25188;51.958;5.842;2023-02-01T14:52:16;8.60;94.50
39021;DHT22;25188;51.958;5.842;2023-02-01T14:54:53;8.50;94.50
39021;DHT22;25188;51.958;5.842;2023-02-01T14:57:22;8.50;94.50
39021;DHT22;25188;51.958;5.842;2023-02-01T14:59:53;8.50;94.60
39021;DHT22;25188;51.958;5.842;2023-02-01T15:02:25;8.50;94.70
39021;DHT22;25188;51.958;5.842;2023-02-01T15:04:56;8.50;94.70
39021;DHT22;25188;51.958;5.842;2023-02-01T15:07:24;8.50;94.80
39021;DHT22;25188;51.958;5.842;2023-02-01T15:09:52;8.50;94.80
39021;DHT22;25188;51.958;5.842;2023-02-01T15:12:24;8.50;94.80
39021;DHT22;25188;51.958;5.842;2023-02-01T15:15:15;8.50;94.90
39021;DHT22;25188;51.958;5.842;2023-02-01T15:17:58;8.50;95.00
39021;DHT22;25188;51.958;5.842;2023-02-01T15:20:30;8.50;95.00
39021;DHT22;25188;51.958;5.842;2023-02-01T15:23:01;8.50;95.00
39021;DHT22;25188;51.958;5.842;2023-02-01T15:25:33;8.50;95.10
39021;DHT22;25188;51.958;5.842;2023-02-01T15:28:00;8.50;95.20
39021;DHT22;25188;51.958;5.842;2023-02-01T15:30:32;8.50;95.70
39021;DHT22;25188;51.958;5.842;2023-02-01T15:33:08;8.50;96.20
39021;DHT22;25188;51.958;5.842;2023-02-01T15:35:43;8.50;96.50
39021;DHT22;25188;51.958;5.842;2023-02-01T15:41:18;8.40;96.50
39021;DHT22;25188;51.958;5.842;2023-02-01T15:44:08;8.40;96.30
39021;DHT22;25188;51.958;5.842;2023-02-01T15:46:40;8.40;96.30
39021;DHT22;25188;51.958;5.842;2023-02-01T15:51:49;8.40;96.10
39021;DHT22;25188;51.958;5.842;2023-02-01T15:54:24;8.40;96.00
39021;DHT22;25188;51.958;5.842;2023-02-01T15:56:55;8.40;96.00
39021;DHT22;25188;51.958;5.842;2023-02-01T15:59:40;8.40;96.00
39021;DHT22;25188;51.958;5.842;2023-02-01T16:02:25;8.40;96.10
39021;DHT22;25188;51.958;5.842;2023-02-01T16:04:51;8.50;96.00
39021;DHT22;25188;51.958;5.842;2023-02-01T16:07:29;8.40;96.00
39021;DHT22;25188;51.958;5.842;2023-02-01T16:10:00;8.40;96.00
39021;DHT22;25188;51.958;5.842;2023-02-01T16:12:52;8.40;96.00
39021;DHT22;25188;51.958;5.842;2023-02-01T16:15:23;8.50;96.00
39021;DHT22;25188;51.958;5.842;2023-02-01T16:17:48;8.50;96.10
39021;DHT22;25188;51.958;5.842;2023-02-01T16:20:14;8.40;96.20
39021;DHT22;25188;51.958;5.842;2023-02-01T16:22:40;8.50;96.30
39021;DHT22;25188;51.958;5.842;2023-02-01T16:25:06;8.50;96.50
39021;DHT22;25188;51.958;5.842;2023-02-01T16:27:32;8.40;96.50
39021;DHT22;25188;51.958;5.842;2023-02-01T16:29:57;8.50;96.60
39021;DHT22;25188;51.958;5.842;2023-02-01T16:32:23;8.50;96.60
39021;DHT22;25188;51.958;5.842;2023-02-01T16:34:49;8.40;96.60
39021;DHT22;25188;51.958;5.842;2023-02-01T16:37:19;8.50;96.60
39021;DHT22;25188;51.958;5.842;2023-02-01T16:39:45;8.50;96.50
39021;DHT22;25188;51.958;5.842;2023-02-01T16:42:15;8.50;96.60
39021;DHT22;25188;51.958;5.842;2023-02-01T16:44:41;8.50;96.60
39021;DHT22;25188;51.958;5.842;2023-02-01T16:47:19;8.50;96.60
39021;DHT22;25188;51.958;5.842;2023-02-01T16:49:45;8.50;96.50
39021;DHT22;25188;51.958;5.842;2023-02-01T16:52:24;8.50;96.40
39021;DHT22;25188;51.958;5.842;2023-02-01T16:54:50;8.50;96.40
39021;DHT22;25188;51.958;5.842;2023-02-01T16:57:19;8.50;96.40
39021;DHT22;25188;51.958;5.842;2023-02-01T16:59:47;8.50;96.50
39021;DHT22;25188;51.958;5.842;2023-02-01T17:02:18;8.50;96.50
39021;DHT22;25188;51.958;5.842;2023-02-01T17:04:47;8.50;96.50
39021;DHT22;25188;51.958;5.842;2023-02-01T17:07:18;8.50;96.60
39021;DHT22;25188;51.958;5.842;2023-02-01T17:09:45;8.50;96.60
39021;DHT22;25188;51.958;5.842;2023-02-01T17:12:23;8.50;96.60
39021;DHT22;25188;51.958;5.842;2023-02-01T17:14:50;8.60;96.60
39021;DHT22;25188;51.958;5.842;2023-02-01T17:17:16;8.60;96.40
39021;DHT22;25188;51.958;5.842;2023-02-01T17:19:44;8.50;96.30
39021;DHT22;25188;51.958;5.842;2023-02-01T17:22:11;8.60;96.30
39021;DHT22;25188;51.958;5.842;2023-02-01T17:24:39;8.60;95.80
39021;DHT22;25188;51.958;5.842;2023-02-01T17:27:05;8.60;95.50
39021;DHT22;25188;51.958;5.842;2023-02-01T17:29:30;8.60;95.60
39021;DHT22;25188;51.958;5.842;2023-02-01T17:31:56;8.70;95.30
39021;DHT22;25188;51.958;5.842;2023-02-01T17:34:25;8.70;95.30
39021;DHT22;25188;51.958;5.842;2023-02-01T17:36:50;8.70;95.40
39021;DHT22;25188;51.958;5.842;2023-02-01T17:39:16;8.70;95.40
39021;DHT22;25188;51.958;5.842;2023-02-01T17:42:02;8.70;95.40
39021;DHT22;25188;51.958;5.842;2023-02-01T17:44:28;8.80;95.30
39021;DHT22;25188;51.958;5.842;2023-02-01T17:46:54;8.80;95.30
39021;DHT22;25188;51.958;5.842;2023-02-01T17:49:22;8.70;95.60
39021;DHT22;25188;51.958;5.842;2023-02-01T17:51:48;8.70;96.00
39021;DHT22;25188;51.958;5.842;2023-02-01T17:54:15;8.70;96.20
39021;DHT22;25188;51.958;5.842;2023-02-01T17:56:42;8.70;96.10
39021;DHT22;25188;51.958;5.842;2023-02-01T17:59:08;8.70;96.00
39021;DHT22;25188;51.958;5.842;2023-02-01T18:01:34;8.70;95.70
39021;DHT22;25188;51.958;5.842;2023-02-01T18:03:59;8.70;95.40
39021;DHT22;25188;51.958;5.842;2023-02-01T18:06:26;8.70;95.40
39021;DHT22;25188;51.958;5.842;2023-02-01T18:08:52;8.70;95.40
39021;DHT22;25188;51.958;5.842;2023-02-01T18:11:23;8.70;95.30
39021;DHT22;25188;51.958;5.842;2023-02-01T18:13:50;8.70;95.30